createdAt,value
2023-04-24T00:00:52.167Z,11.33
2023-04-24T00:03:22.413Z,11.19
2023-04-24T00:05:52.213Z,11.06
2023-04-24T00:08:20.864Z,10.91
2023-04-24T00:10:51.235Z,10.81
2023-04-24T00:13:19.788Z,10.80
2023-04-24T00:15:48.546Z,10.78
2023-04-24T00:18:17.275Z,10.70
2023-04-24T00:20:45.928Z,10.61
2023-04-24T00:23:15.157Z,10.59
2023-04-24T00:25:44.307Z,10.55
2023-04-24T00:28:14.238Z,10.50
2023-04-24T00:30:44.474Z,10.45
2023-04-24T00:33:12.972Z,10.36
2023-04-24T00:35:41.982Z,10.32
2023-04-24T00:38:11.140Z,10.22
2023-04-24T00:40:40.120Z,10.15
2023-04-24T00:43:10.435Z,10.20
2023-04-24T00:45:40.664Z,10.16
2023-04-24T00:48:10.372Z,10.09
2023-04-24T00:50:40.669Z,10.02
2023-04-24T00:53:09.541Z,9.95
2023-04-24T00:55:39.598Z,9.92
2023-04-24T00:58:11.295Z,9.92
2023-04-24T01:00:42.020Z,9.87
2023-04-24T01:03:12.687Z,9.79
2023-04-24T01:05:41.425Z,9.73
2023-04-24T01:08:11.120Z,9.71
2023-04-24T01:10:43.257Z,9.73
2023-04-24T01:13:12.446Z,9.71
2023-04-24T01:15:42.406Z,9.70
2023-04-24T01:18:11.284Z,9.72
2023-04-24T01:20:42.235Z,9.73
2023-04-24T01:23:12.748Z,9.72
2023-04-24T01:25:41.891Z,9.68
2023-04-24T01:28:10.944Z,9.61
2023-04-24T01:30:40.838Z,9.52
2023-04-24T01:33:09.517Z,9.46
2023-04-24T01:35:38.588Z,9.47
2023-04-24T01:38:07.816Z,9.50
2023-04-24T01:40:39.861Z,9.49
2023-04-24T01:43:09.032Z,9.50
2023-04-24T01:45:37.466Z,9.53
2023-04-24T01:48:06.457Z,9.56
2023-04-24T01:50:35.643Z,9.58
2023-04-24T01:53:06.170Z,9.56
2023-04-24T01:55:34.717Z,9.51
2023-04-24T01:58:05.177Z,9.49
2023-04-24T02:00:34.012Z,9.43
2023-04-24T02:03:03.669Z,9.40
2023-04-24T02:05:32.355Z,9.41
2023-04-24T02:08:01.072Z,9.41
2023-04-24T02:10:29.756Z,9.41
2023-04-24T02:13:01.871Z,9.39
2023-04-24T02:15:31.877Z,9.38
2023-04-24T02:18:00.871Z,9.36
2023-04-24T02:20:30.045Z,9.32
2023-04-24T02:22:58.668Z,9.25
2023-04-24T02:25:27.432Z,9.19
2023-04-24T02:27:57.706Z,9.14
2023-04-24T02:30:26.194Z,9.10
2023-04-24T02:32:56.575Z,9.10
2023-04-24T02:35:25.132Z,9.12
2023-04-24T02:37:53.542Z,9.16
2023-04-24T02:40:21.968Z,9.16
2023-04-24T02:42:50.804Z,9.08
2023-04-24T02:45:19.308Z,9.02
2023-04-24T02:47:48.169Z,8.97
2023-04-24T02:50:18.530Z,8.90
2023-04-24T02:52:47.496Z,8.85
2023-04-24T02:55:16.131Z,8.82
2023-04-24T02:57:45.286Z,8.77
2023-04-24T03:00:15.720Z,8.73
2023-04-24T03:02:44.652Z,8.69
2023-04-24T03:05:14.178Z,8.70
2023-04-24T03:07:44.282Z,8.64
2023-04-24T03:10:13.158Z,8.62
2023-04-24T03:12:42.921Z,8.59
2023-04-24T03:15:12.429Z,8.59
2023-04-24T03:17:41.884Z,8.61
2023-04-24T03:20:11.722Z,8.72
2023-04-24T03:22:40.789Z,8.81
2023-04-24T03:25:12.310Z,8.87
2023-04-24T03:27:41.657Z,8.79
2023-04-24T03:30:32.897Z,8.88
2023-04-24T03:33:04.296Z,8.91
2023-04-24T03:35:37.929Z,8.78
2023-04-24T03:38:11.873Z,8.80
2023-04-24T03:40:57.453Z,8.78
2023-04-24T03:43:37.123Z,8.76
2023-04-24T03:46:08.697Z,8.73
2023-04-24T03:48:41.094Z,8.71
2023-04-24T03:51:11.320Z,8.79
2023-04-24T03:53:43.009Z,8.87
2023-04-24T03:56:15.063Z,8.91
2023-04-24T03:58:44.794Z,8.99
2023-04-24T04:01:14.824Z,9.05
2023-04-24T04:03:51.572Z,9.12
2023-04-24T04:06:23.953Z,9.21
2023-04-24T04:08:54.837Z,9.38
2023-04-24T04:11:25.685Z,9.51
2023-04-24T04:13:55.877Z,9.62
2023-04-24T04:16:25.674Z,9.76
2023-04-24T04:18:59.792Z,9.89
2023-04-24T04:21:29.148Z,9.99
2023-04-24T04:24:08.391Z,10.14
2023-04-24T04:26:47.521Z,10.29
2023-04-24T04:29:25.075Z,10.41
2023-04-24T04:31:54.735Z,10.48
2023-04-24T04:34:24.477Z,10.51
2023-04-24T04:36:53.830Z,10.62
2023-04-24T04:39:54.895Z,10.76
2023-04-24T04:42:29.566Z,10.87
2023-04-24T04:44:58.595Z,10.96
2023-04-24T04:47:36.178Z,11.05
2023-04-24T04:50:06.565Z,11.14
2023-04-24T04:52:35.543Z,11.23
2023-04-24T04:55:15.978Z,11.34
2023-04-24T04:58:10.102Z,11.47
2023-04-24T05:00:39.380Z,11.56
2023-04-24T05:03:31.230Z,11.64
2023-04-24T05:06:07.537Z,11.74
2023-04-24T05:08:39.043Z,11.83
2023-04-24T05:11:11.069Z,11.88
2023-04-24T05:13:43.259Z,11.93
2023-04-24T05:16:17.457Z,12.00
2023-04-24T05:18:46.759Z,12.04
2023-04-24T05:21:18.506Z,12.09
2023-04-24T05:23:51.053Z,12.15
2023-04-24T05:26:28.517Z,12.23
2023-04-24T05:29:01.722Z,12.30
2023-04-24T05:31:30.706Z,12.38
2023-04-24T05:34:00.063Z,12.42
2023-04-24T05:36:29.454Z,12.50
2023-04-24T05:38:57.971Z,12.63
2023-04-24T05:41:26.487Z,12.74
2023-04-24T05:43:55.208Z,12.85
2023-04-24T05:46:24.905Z,12.99
2023-04-24T05:48:53.812Z,13.15
2023-04-24T05:51:22.920Z,13.25
2023-04-24T05:53:51.583Z,13.25
2023-04-24T05:56:20.502Z,13.24
2023-04-24T05:58:49.342Z,13.22
2023-04-24T06:01:17.859Z,13.21
2023-04-24T06:03:52.318Z,13.18
2023-04-24T06:06:21.413Z,13.15
2023-04-24T06:08:49.900Z,13.17
2023-04-24T06:11:18.552Z,13.24
2023-04-24T06:13:47.407Z,13.31
2023-04-24T06:16:40.258Z,13.45
2023-04-24T06:19:21.898Z,13.55
2023-04-24T06:21:50.840Z,13.68
2023-04-24T06:24:19.296Z,13.93
2023-04-24T06:26:48.318Z,14.26
2023-04-24T06:29:18.387Z,14.61
2023-04-24T06:31:46.815Z,14.94
2023-04-24T06:34:15.425Z,15.26
2023-04-24T06:36:45.344Z,15.55
2023-04-24T06:39:13.980Z,15.81
2023-04-24T06:41:42.528Z,16.05
2023-04-24T06:44:20.933Z,16.32
2023-04-24T06:46:49.480Z,16.57
2023-04-24T06:49:18.586Z,16.83
2023-04-24T06:51:48.620Z,17.07
2023-04-24T06:54:17.593Z,17.26
2023-04-24T06:56:49.248Z,17.44
2023-04-24T06:59:18.168Z,17.66
2023-04-24T07:01:48.050Z,17.87
2023-04-24T07:04:18.091Z,18.05
2023-04-24T07:06:52.459Z,18.10
2023-04-24T07:09:24.918Z,18.26
2023-04-24T07:11:54.692Z,18.17
2023-04-24T07:14:23.684Z,18.06
2023-04-24T07:16:52.942Z,18.00
2023-04-24T07:19:21.903Z,17.90
2023-04-24T07:21:52.156Z,18.15
2023-04-24T07:24:22.975Z,18.25
2023-04-24T07:26:53.551Z,18.35
2023-04-24T07:29:22.262Z,18.86
2023-04-24T07:31:51.174Z,19.33
2023-04-24T07:34:19.632Z,19.77
2023-04-24T07:36:48.729Z,20.01
2023-04-24T07:39:18.876Z,20.31
2023-04-24T07:41:48.150Z,20.47
2023-04-24T07:44:17.302Z,20.62
2023-04-24T07:46:46.146Z,20.74
2023-04-24T07:49:16.401Z,20.80
2023-04-24T07:51:48.113Z,20.91
2023-04-24T07:54:18.841Z,21.12
2023-04-24T07:56:49.282Z,21.22
2023-04-24T07:59:18.105Z,21.41
2023-04-24T08:01:47.140Z,21.49
2023-04-24T08:04:17.306Z,21.54
2023-04-24T08:06:46.690Z,21.74
2023-04-24T08:09:19.413Z,21.91
2023-04-24T08:11:48.354Z,21.99
2023-04-24T08:14:17.260Z,22.18
2023-04-24T08:16:46.774Z,22.40
2023-04-24T08:19:16.244Z,22.59
2023-04-24T08:21:45.264Z,22.87
2023-04-24T08:24:14.468Z,23.06
2023-04-24T08:26:44.446Z,22.99
2023-04-24T08:29:13.753Z,22.99
2023-04-24T08:31:42.941Z,23.09
2023-04-24T08:34:12.299Z,23.35
2023-04-24T08:36:47.192Z,23.74
2023-04-24T08:39:18.626Z,23.95
2023-04-24T08:41:51.819Z,24.23
2023-04-24T08:44:22.619Z,24.53
2023-04-24T08:46:52.619Z,24.38
2023-04-24T08:49:22.499Z,24.30
2023-04-24T08:51:52.947Z,24.36
2023-04-24T08:54:21.905Z,24.49
2023-04-24T08:56:55.248Z,24.67
2023-04-24T08:59:24.787Z,24.85
2023-04-24T09:01:55.030Z,25.32
2023-04-24T09:04:26.135Z,25.35
2023-04-24T09:06:58.985Z,25.54
2023-04-24T09:09:33.576Z,25.89
2023-04-24T09:12:05.015Z,25.89
2023-04-24T09:14:34.763Z,25.74
2023-04-24T09:17:05.339Z,25.85
2023-04-24T09:19:34.468Z,25.95
2023-04-24T09:22:07.565Z,26.30
2023-04-24T09:24:39.257Z,26.53
2023-04-24T09:27:11.350Z,26.73
2023-04-24T09:29:40.196Z,27.00
2023-04-24T09:32:22.962Z,27.19
2023-04-24T09:34:52.494Z,27.12
2023-04-24T09:37:37.661Z,27.10
2023-04-24T09:40:12.218Z,27.10
2023-04-24T09:42:45.468Z,27.19
2023-04-24T09:45:15.901Z,27.10
2023-04-24T09:47:45.091Z,27.29
2023-04-24T09:50:24.036Z,27.36
2023-04-24T09:53:02.397Z,27.59
2023-04-24T09:55:34.277Z,28.09
2023-04-24T09:58:06.404Z,27.96
2023-04-24T10:00:35.910Z,28.00
2023-04-24T10:03:06.012Z,28.02
2023-04-24T10:05:36.293Z,28.10
2023-04-24T10:08:07.025Z,27.90
2023-04-24T10:10:39.529Z,28.00
2023-04-24T10:13:10.260Z,28.27
2023-04-24T10:15:39.136Z,28.37
2023-04-24T10:18:08.620Z,28.53
2023-04-24T10:20:38.844Z,28.87
2023-04-24T10:23:08.464Z,28.52
2023-04-24T10:25:38.821Z,28.44
2023-04-24T10:28:10.487Z,28.82
2023-04-24T10:30:45.352Z,28.72
2023-04-24T10:33:14.974Z,28.70
2023-04-24T10:35:52.633Z,29.05
2023-04-24T10:38:26.680Z,29.41
2023-04-24T10:41:00.680Z,29.73
2023-04-24T10:43:29.947Z,29.92
2023-04-24T10:46:08.534Z,29.85
2023-04-24T10:48:37.477Z,30.01
2023-04-24T10:51:06.903Z,30.01
2023-04-24T10:53:37.610Z,30.07
2023-04-24T10:56:08.429Z,30.40
2023-04-24T10:58:44.460Z,30.58
2023-04-24T11:01:26.577Z,30.48
2023-04-24T11:03:58.820Z,30.53
2023-04-24T11:06:34.000Z,30.56
2023-04-24T11:09:19.616Z,30.54
2023-04-24T11:11:49.406Z,30.55
2023-04-24T11:14:18.773Z,30.51
2023-04-24T11:16:55.649Z,30.47
2023-04-24T11:19:26.809Z,30.38
2023-04-24T11:22:02.686Z,30.54
2023-04-24T11:24:34.154Z,30.57
2023-04-24T11:27:09.244Z,30.82
2023-04-24T11:29:46.607Z,30.28
2023-04-24T11:32:28.680Z,29.91
2023-04-24T11:34:58.839Z,30.21
2023-04-24T11:37:29.964Z,30.43
2023-04-24T11:40:00.801Z,30.42
2023-04-24T11:42:44.961Z,30.29
2023-04-24T11:45:18.697Z,30.51
2023-04-24T11:47:48.765Z,30.57
2023-04-24T11:50:23.758Z,30.37
2023-04-24T11:52:53.226Z,30.50
2023-04-24T11:55:28.347Z,30.55
2023-04-24T11:57:59.164Z,30.47
2023-04-24T12:00:30.059Z,30.30
2023-04-24T12:03:11.128Z,30.35
2023-04-24T12:05:42.274Z,30.29
2023-04-24T12:08:11.176Z,30.13
2023-04-24T12:10:39.935Z,30.05
2023-04-24T12:13:12.575Z,29.88
2023-04-24T12:15:42.958Z,30.03
2023-04-24T12:18:14.728Z,30.04
2023-04-24T12:20:44.362Z,30.10
2023-04-24T12:23:15.096Z,30.32
2023-04-24T12:25:44.118Z,30.39
2023-04-24T12:28:14.596Z,30.36
2023-04-24T12:30:46.005Z,30.42
2023-04-24T12:33:20.507Z,30.39
2023-04-24T12:35:50.760Z,30.35
2023-04-24T12:38:24.897Z,30.25
2023-04-24T12:41:05.355Z,30.04
2023-04-24T12:43:34.882Z,29.95
2023-04-24T12:46:04.292Z,29.84
2023-04-24T12:48:34.891Z,29.27
2023-04-24T12:51:03.926Z,28.96
2023-04-24T12:53:33.307Z,28.93
2023-04-24T12:56:04.384Z,28.87
2023-04-24T12:58:33.287Z,28.81
2023-04-24T13:01:02.234Z,28.37
2023-04-24T13:03:35.232Z,28.07
2023-04-24T13:06:04.003Z,27.63
2023-04-24T13:08:33.044Z,27.24
2023-04-24T13:11:01.765Z,26.94
2023-04-24T13:13:30.637Z,26.72
2023-04-24T13:15:59.625Z,26.59
2023-04-24T13:18:28.476Z,26.49
2023-04-24T13:20:59.125Z,26.62
2023-04-24T13:23:28.186Z,27.02
2023-04-24T13:25:58.909Z,27.36
2023-04-24T13:28:28.064Z,27.55
2023-04-24T13:30:56.718Z,27.88
2023-04-24T13:33:26.160Z,27.96
2023-04-24T13:35:55.257Z,28.10
2023-04-24T13:38:25.590Z,28.11
2023-04-24T13:40:54.324Z,28.07
2023-04-24T13:43:23.030Z,27.97
2023-04-24T13:45:51.873Z,27.83
2023-04-24T13:48:20.864Z,27.60
2023-04-24T13:50:50.928Z,27.72
2023-04-24T13:53:19.845Z,27.57
2023-04-24T13:55:50.033Z,27.61
2023-04-24T13:58:18.818Z,27.75
2023-04-24T14:00:47.410Z,27.76
2023-04-24T14:03:18.989Z,27.84
2023-04-24T14:05:47.926Z,27.38
2023-04-24T14:08:16.614Z,27.12
2023-04-24T14:10:46.148Z,27.06
2023-04-24T14:13:17.285Z,27.03
2023-04-24T14:15:48.817Z,27.00
2023-04-24T14:18:17.697Z,26.96
2023-04-24T14:20:46.580Z,26.91
2023-04-24T14:23:18.451Z,26.98
2023-04-24T14:25:49.619Z,27.00
2023-04-24T14:28:20.268Z,26.87
2023-04-24T14:30:49.449Z,26.28
2023-04-24T14:33:18.551Z,26.17
2023-04-24T14:35:47.382Z,26.11
2023-04-24T14:38:16.512Z,26.08
2023-04-24T14:41:05.268Z,26.06
2023-04-24T14:43:36.459Z,25.94
2023-04-24T14:46:05.824Z,25.67
2023-04-24T14:48:35.016Z,25.58
2023-04-24T14:51:03.882Z,25.47
2023-04-24T14:53:32.990Z,25.05
2023-04-24T14:56:02.596Z,24.60
2023-04-24T15:01:01.901Z,24.01
2023-04-24T15:03:31.038Z,24.07
2023-04-24T15:06:00.013Z,24.18
2023-04-24T15:08:28.695Z,24.30
2023-04-24T15:10:57.690Z,24.47
2023-04-24T15:13:26.488Z,24.58
2023-04-24T15:15:55.589Z,24.57
2023-04-24T15:18:25.912Z,24.56
2023-04-24T15:20:55.683Z,24.49
2023-04-24T15:23:24.561Z,24.40
2023-04-24T15:25:53.467Z,24.34
2023-04-24T15:28:23.299Z,24.26
2023-04-24T15:30:51.822Z,23.94
2023-04-24T15:33:20.626Z,23.79
2023-04-24T15:35:51.546Z,23.74
2023-04-24T15:38:20.943Z,23.72
2023-04-24T15:40:50.597Z,23.69
2023-04-24T15:43:20.601Z,23.65
2023-04-24T15:45:56.118Z,23.61
2023-04-24T15:48:25.034Z,23.55
2023-04-24T15:50:55.719Z,23.41
2023-04-24T15:53:24.650Z,23.29
2023-04-24T15:55:57.453Z,23.18
2023-04-24T15:58:26.428Z,23.08
2023-04-24T16:00:55.924Z,22.95
2023-04-24T16:03:50.289Z,22.88
2023-04-24T16:06:21.313Z,22.86
2023-04-24T16:08:50.658Z,22.84
2023-04-24T16:11:19.505Z,22.67
2023-04-24T16:13:48.469Z,22.49
2023-04-24T16:16:17.469Z,22.36
2023-04-24T16:18:48.059Z,22.15
2023-04-24T16:21:17.378Z,21.93
2023-04-24T16:23:47.636Z,21.79
2023-04-24T16:26:16.901Z,21.69
2023-04-24T16:28:46.194Z,21.56
2023-04-24T16:31:14.939Z,21.44
2023-04-24T16:33:43.698Z,21.29
2023-04-24T16:36:13.509Z,21.13
2023-04-24T16:38:41.939Z,20.96
2023-04-24T16:41:11.882Z,20.82
2023-04-24T16:43:40.371Z,20.76
2023-04-24T16:46:09.703Z,20.65
2023-04-24T16:48:38.690Z,20.55
2023-04-24T16:51:07.780Z,20.46
2023-04-24T16:53:38.472Z,20.34
2023-04-24T16:56:07.306Z,20.22
2023-04-24T16:58:37.630Z,20.12
2023-04-24T17:01:06.689Z,20.06
2023-04-24T17:03:35.580Z,19.92
2023-04-24T17:06:05.112Z,19.74
2023-04-24T17:08:34.319Z,19.56
2023-04-24T17:11:03.225Z,19.40
2023-04-24T17:13:31.769Z,19.27
2023-04-24T17:16:02.028Z,19.14
2023-04-24T17:18:30.903Z,19.01
2023-04-24T17:20:59.531Z,18.84
2023-04-24T17:23:28.937Z,18.68
2023-04-24T17:25:57.844Z,18.52
2023-04-24T17:28:28.211Z,18.33
2023-04-24T17:30:58.614Z,18.18
2023-04-24T17:33:29.990Z,18.01
2023-04-24T17:36:00.042Z,17.82
2023-04-24T17:38:33.321Z,17.63
2023-04-24T17:41:02.196Z,17.54
2023-04-24T17:43:36.576Z,17.37
2023-04-24T17:46:13.328Z,17.23
2023-04-24T17:48:53.443Z,17.07
2023-04-24T17:51:28.674Z,16.94
2023-04-24T17:53:59.022Z,16.85
2023-04-24T17:56:27.969Z,16.73
2023-04-24T17:58:58.403Z,16.61
2023-04-24T18:01:29.321Z,16.49
2023-04-24T18:03:59.436Z,16.42
2023-04-24T18:06:28.927Z,16.35
2023-04-24T18:08:59.468Z,16.31
2023-04-24T18:11:29.267Z,16.26
2023-04-24T18:13:58.404Z,16.22
2023-04-24T18:16:27.121Z,16.20
2023-04-24T18:18:56.570Z,16.15
2023-04-24T18:21:26.676Z,16.10
2023-04-24T18:23:55.405Z,16.06
2023-04-24T18:26:23.624Z,16.01
2023-04-24T18:28:52.225Z,16.01
2023-04-24T18:31:21.812Z,15.98
2023-04-24T18:33:50.613Z,15.91
2023-04-24T18:36:19.342Z,15.82
2023-04-24T18:38:49.617Z,15.75
2023-04-24T18:41:18.336Z,15.71
2023-04-24T18:43:48.077Z,15.63
2023-04-24T18:46:16.912Z,15.52
2023-04-24T18:48:45.751Z,15.42
2023-04-24T18:51:14.588Z,15.30
2023-04-24T18:53:43.575Z,15.24
2023-04-24T18:56:14.470Z,15.17
2023-04-24T18:58:46.761Z,15.08
2023-04-24T19:01:16.939Z,15.06
2023-04-24T19:03:46.163Z,15.06
2023-04-24T19:06:15.410Z,15.01
2023-04-24T19:08:44.996Z,15.00
2023-04-24T19:11:15.898Z,14.94
2023-04-24T19:13:45.128Z,14.94
2023-04-24T19:16:13.763Z,14.91
2023-04-24T19:18:42.754Z,14.86
2023-04-24T19:21:11.700Z,14.83
2023-04-24T19:23:41.687Z,14.74
2023-04-24T19:26:11.495Z,14.78
2023-04-24T19:28:42.129Z,14.75
2023-04-24T19:31:11.072Z,14.74
2023-04-24T19:33:40.020Z,14.79
2023-04-24T19:36:08.821Z,14.79
2023-04-24T19:38:37.413Z,14.82
2023-04-24T19:41:05.856Z,14.92
2023-04-24T19:43:34.499Z,14.98
2023-04-24T19:46:04.518Z,14.99
2023-04-24T19:48:33.344Z,15.00
2023-04-24T19:51:02.370Z,15.00
2023-04-24T19:53:31.148Z,14.96
2023-04-24T19:55:59.916Z,14.91
2023-04-24T19:58:30.688Z,14.91
2023-04-24T20:00:59.793Z,14.83
2023-04-24T20:03:33.598Z,14.76
2023-04-24T20:06:03.568Z,14.72
2023-04-24T20:08:32.785Z,14.65
2023-04-24T20:11:04.362Z,14.66
2023-04-24T20:13:34.060Z,14.65
2023-04-24T20:16:03.378Z,14.56
2023-04-24T20:18:33.509Z,14.45
2023-04-24T20:21:02.721Z,14.26
2023-04-24T20:23:31.504Z,14.20
2023-04-24T20:26:01.251Z,14.08
2023-04-24T20:28:30.700Z,13.94
2023-04-24T20:31:00.305Z,13.85
2023-04-24T20:33:30.765Z,13.77
2023-04-24T20:36:01.046Z,13.69
2023-04-24T20:38:30.246Z,13.61
2023-04-24T20:41:00.255Z,13.50
2023-04-24T20:43:29.549Z,13.42
2023-04-24T20:45:59.619Z,13.43
2023-04-24T20:48:28.797Z,13.41
2023-04-24T20:50:57.762Z,13.38
2023-04-24T20:53:28.425Z,13.30
2023-04-24T20:55:57.089Z,13.24
2023-04-24T20:58:25.795Z,13.20
2023-04-24T21:00:54.912Z,13.17
2023-04-24T21:03:23.761Z,13.21
2023-04-24T21:05:52.735Z,13.29
2023-04-24T21:08:21.724Z,13.29
2023-04-24T21:10:52.577Z,13.30
2023-04-24T21:13:21.127Z,13.34
2023-04-24T21:15:50.409Z,13.33
2023-04-24T21:18:19.195Z,13.37
2023-04-24T21:20:50.319Z,13.44
2023-04-24T21:23:22.264Z,13.42
2023-04-24T21:25:53.508Z,13.41
2023-04-24T21:28:25.168Z,13.35
2023-04-24T21:30:54.746Z,13.22
2023-04-24T21:33:23.785Z,13.13
2023-04-24T21:35:52.698Z,13.04
2023-04-24T21:38:24.701Z,12.99
2023-04-24T21:40:55.222Z,12.87
2023-04-24T21:43:37.112Z,12.79
2023-04-24T21:46:05.932Z,12.60
2023-04-24T21:48:34.801Z,12.46
2023-04-24T21:51:04.427Z,12.32
2023-04-24T21:53:33.258Z,12.26
2023-04-24T21:56:03.883Z,12.17
2023-04-24T21:58:34.069Z,12.10
2023-04-24T22:01:03.150Z,12.05
2023-04-24T22:03:32.290Z,11.96
2023-04-24T22:06:01.581Z,11.88
2023-04-24T22:08:30.179Z,11.79
2023-04-24T22:10:58.968Z,11.77
2023-04-24T22:13:29.320Z,11.74
2023-04-24T22:15:58.111Z,11.74
2023-04-24T22:18:36.550Z,11.76
2023-04-24T22:21:12.835Z,11.73
2023-04-24T22:23:43.416Z,11.79
2023-04-24T22:26:13.737Z,11.75
2023-04-24T22:28:44.499Z,11.73
2023-04-24T22:31:14.006Z,11.71
2023-04-24T22:33:43.985Z,11.69
2023-04-24T22:36:16.022Z,11.60
2023-04-24T22:38:44.640Z,11.54
2023-04-24T22:41:14.251Z,11.50
2023-04-24T22:43:44.304Z,11.54
2023-04-24T22:46:14.953Z,11.50
2023-04-24T22:48:45.782Z,11.53
2023-04-24T22:51:14.629Z,11.47
2023-04-24T22:53:45.464Z,11.48
2023-04-24T22:56:13.953Z,11.45
2023-04-24T22:58:43.766Z,11.45
2023-04-24T23:01:12.420Z,11.45
2023-04-24T23:03:41.122Z,11.51
2023-04-24T23:06:11.088Z,11.58
2023-04-24T23:08:39.507Z,11.60
2023-04-24T23:11:08.764Z,11.65
2023-04-24T23:13:37.389Z,11.67
2023-04-24T23:16:08.441Z,11.70
2023-04-24T23:18:36.925Z,11.76
2023-04-24T23:21:06.985Z,11.78
2023-04-24T23:23:38.978Z,11.81
2023-04-24T23:26:07.538Z,11.79
2023-04-24T23:28:37.669Z,11.82
2023-04-24T23:31:07.517Z,11.83
2023-04-24T23:33:36.173Z,11.79
2023-04-24T23:36:06.490Z,11.70
2023-04-24T23:38:46.620Z,11.69
2023-04-24T23:41:17.700Z,11.66
2023-04-24T23:43:46.575Z,11.67
2023-04-24T23:46:17.113Z,11.67
2023-04-24T23:48:45.969Z,11.68
2023-04-24T23:51:14.880Z,11.73
2023-04-24T23:53:43.863Z,11.76
2023-04-24T23:56:12.521Z,11.74
2023-04-24T23:58:41.521Z,11.78
